createdAt,value
2019-01-26T00:00:57.102Z,6.00
2019-01-26T00:03:28.724Z,6.23
2019-01-26T00:06:00.257Z,6.10
2019-01-26T00:08:33.104Z,4.20
2019-01-26T00:11:04.789Z,3.40
2019-01-26T00:13:36.401Z,4.30
2019-01-26T00:16:07.985Z,3.87
2019-01-26T00:18:40.317Z,3.93
2019-01-26T00:21:12.039Z,4.70
2019-01-26T00:23:45.637Z,5.33
2019-01-26T00:26:17.604Z,9.20
2019-01-26T00:28:49.290Z,15.37
2019-01-26T00:31:21.113Z,25.83
2019-01-26T00:33:53.873Z,20.60
2019-01-26T00:36:26.089Z,10.53
2019-01-26T00:38:57.708Z,6.87
2019-01-26T00:41:29.305Z,5.03
2019-01-26T00:44:01.062Z,5.90
2019-01-26T00:46:32.940Z,5.10
2019-01-26T00:49:04.540Z,4.50
2019-01-26T00:51:36.198Z,6.30
2019-01-26T00:54:08.044Z,4.23
2019-01-26T00:56:39.414Z,4.93
2019-01-26T00:59:11.197Z,7.77
2019-01-26T01:01:43.109Z,7.27
2019-01-26T01:04:14.760Z,7.70
2019-01-26T01:06:46.448Z,7.50
2019-01-26T01:09:18.168Z,8.43
2019-01-26T01:11:49.813Z,6.20
2019-01-26T01:14:21.676Z,4.23
2019-01-26T01:16:53.224Z,4.97
2019-01-26T01:19:25.016Z,3.60
2019-01-26T01:21:57.735Z,3.77
2019-01-26T01:24:31.723Z,3.90
2019-01-26T01:27:04.087Z,4.20
2019-01-26T01:29:35.775Z,4.10
2019-01-26T01:32:07.985Z,4.40
2019-01-26T01:34:39.831Z,4.37
2019-01-26T01:37:12.661Z,3.63
2019-01-26T01:39:44.270Z,3.43
2019-01-26T01:42:16.047Z,3.33
2019-01-26T01:44:48.453Z,3.67
2019-01-26T01:47:21.289Z,3.33
2019-01-26T01:49:52.880Z,3.20
2019-01-26T01:52:24.557Z,3.10
2019-01-26T01:54:56.259Z,2.87
2019-01-26T01:57:27.754Z,2.90
2019-01-26T01:59:59.507Z,3.33
2019-01-26T02:02:31.034Z,3.43
2019-01-26T02:05:02.579Z,3.67
2019-01-26T02:07:34.151Z,3.27
2019-01-26T02:10:06.490Z,3.33
2019-01-26T02:12:38.004Z,2.77
2019-01-26T02:15:10.248Z,2.73
2019-01-26T02:17:42.098Z,2.97
2019-01-26T02:20:16.107Z,2.77
2019-01-26T02:22:48.608Z,2.97
2019-01-26T02:25:21.654Z,2.80
2019-01-26T02:27:53.170Z,3.73
2019-01-26T02:30:25.373Z,4.77
2019-01-26T02:32:56.904Z,9.93
2019-01-26T02:35:28.676Z,9.37
2019-01-26T02:38:00.261Z,6.27
2019-01-26T02:40:31.660Z,4.67
2019-01-26T02:43:18.727Z,4.00
2019-01-26T02:45:50.457Z,3.63
2019-01-26T02:48:22.733Z,3.53
2019-01-26T02:50:54.341Z,4.80
2019-01-26T02:53:26.947Z,7.27
2019-01-26T02:55:58.332Z,20.23
2019-01-26T02:58:29.706Z,34.87
2019-01-26T03:01:01.208Z,6.77
2019-01-26T03:03:33.679Z,18.97
2019-01-26T03:06:05.442Z,24.70
2019-01-26T03:08:37.186Z,18.23
2019-01-26T03:11:08.700Z,8.47
2019-01-26T03:13:40.253Z,6.33
2019-01-26T03:16:11.840Z,7.40
2019-01-26T03:18:43.473Z,7.40
2019-01-26T03:21:15.457Z,7.53
2019-01-26T03:23:46.853Z,9.17
2019-01-26T03:26:18.443Z,7.63
2019-01-26T03:28:50.291Z,6.90
2019-01-26T03:31:21.946Z,15.13
2019-01-26T03:33:53.571Z,18.30
2019-01-26T03:36:25.254Z,16.87
2019-01-26T03:38:58.413Z,23.57
2019-01-26T03:41:30.969Z,14.07
2019-01-26T03:44:02.668Z,5.57
2019-01-26T03:46:34.323Z,7.17
2019-01-26T03:49:06.014Z,6.30
2019-01-26T03:51:37.599Z,7.13
2019-01-26T03:54:10.447Z,6.97
2019-01-26T03:56:42.044Z,9.77
2019-01-26T03:59:13.867Z,8.07
2019-01-26T04:01:45.368Z,7.10
2019-01-26T04:04:17.553Z,3.97
2019-01-26T04:06:49.123Z,4.30
2019-01-26T04:09:20.770Z,5.73
2019-01-26T04:11:53.201Z,5.63
2019-01-26T04:14:25.920Z,5.03
2019-01-26T04:16:57.409Z,4.97
2019-01-26T04:19:29.684Z,5.07
2019-01-26T04:22:01.466Z,7.30
2019-01-26T04:24:34.013Z,8.20
2019-01-26T04:27:05.465Z,5.97
2019-01-26T04:29:37.026Z,5.27
2019-01-26T04:32:08.660Z,5.63
2019-01-26T04:34:40.292Z,4.73
2019-01-26T04:37:30.438Z,13.07
2019-01-26T04:40:02.765Z,20.20
2019-01-26T04:42:34.045Z,7.53
2019-01-26T04:45:06.422Z,2.93
2019-01-26T04:47:37.769Z,3.80
2019-01-26T04:50:11.455Z,6.60
2019-01-26T04:52:43.018Z,10.67
2019-01-26T04:55:15.771Z,11.40
2019-01-26T04:57:47.500Z,8.20
2019-01-26T05:00:25.656Z,5.73
2019-01-26T05:02:57.071Z,6.33
2019-01-26T05:05:28.765Z,4.10
2019-01-26T05:08:00.366Z,3.40
2019-01-26T05:10:32.068Z,3.20
2019-01-26T05:13:03.399Z,2.80
2019-01-26T05:15:34.973Z,2.57
2019-01-26T05:18:06.582Z,3.77
2019-01-26T05:20:38.114Z,10.03
2019-01-26T05:23:09.578Z,5.73
2019-01-26T05:25:41.333Z,6.17
2019-01-26T05:28:12.867Z,5.93
2019-01-26T05:30:44.373Z,4.63
2019-01-26T05:33:15.768Z,3.07
2019-01-26T05:35:47.598Z,2.73
2019-01-26T05:38:19.007Z,4.03
2019-01-26T05:40:50.873Z,5.30
2019-01-26T05:43:22.403Z,4.13
2019-01-26T05:45:54.884Z,7.07
2019-01-26T05:48:26.437Z,19.67
2019-01-26T05:50:57.884Z,10.50
2019-01-26T05:53:29.422Z,6.20
2019-01-26T05:56:02.037Z,4.37
2019-01-26T05:58:33.286Z,3.73
2019-01-26T06:01:05.820Z,5.90
2019-01-26T06:03:37.043Z,7.53
2019-01-26T06:06:09.136Z,8.67
2019-01-26T06:08:40.877Z,4.90
2019-01-26T06:11:12.409Z,4.17
2019-01-26T06:13:43.792Z,4.23
2019-01-26T06:16:15.430Z,4.07
2019-01-26T06:18:47.567Z,5.50
2019-01-26T06:21:19.223Z,5.30
2019-01-26T06:23:50.838Z,4.80
2019-01-26T06:26:22.360Z,8.73
2019-01-26T06:28:53.629Z,24.00
2019-01-26T06:31:25.247Z,5.33
2019-01-26T06:33:56.797Z,6.37
2019-01-26T06:36:29.616Z,6.83
2019-01-26T06:39:01.202Z,4.40
2019-01-26T06:41:33.410Z,6.80
2019-01-26T06:44:05.251Z,10.93
2019-01-26T06:46:36.861Z,6.97
2019-01-26T06:49:08.443Z,6.73
2019-01-26T06:51:54.529Z,6.73
2019-01-26T06:54:27.043Z,17.83
2019-01-26T06:56:58.722Z,16.53
2019-01-26T06:59:30.107Z,13.77
2019-01-26T07:02:01.831Z,6.00
2019-01-26T07:04:47.462Z,3.60
2019-01-26T07:07:20.392Z,5.90
2019-01-26T07:09:51.862Z,5.97
2019-01-26T07:12:24.375Z,6.57
2019-01-26T07:14:55.922Z,4.23
2019-01-26T07:17:38.882Z,5.27
2019-01-26T07:20:22.621Z,10.00
2019-01-26T07:22:54.158Z,11.20
2019-01-26T07:25:25.802Z,16.03
2019-01-26T07:27:57.508Z,4.57
2019-01-26T07:30:29.335Z,6.33
2019-01-26T07:33:00.904Z,8.70
2019-01-26T07:35:32.542Z,9.27
2019-01-26T07:38:04.414Z,3.30
2019-01-26T07:40:36.221Z,4.00
2019-01-26T07:43:08.146Z,4.13
2019-01-26T07:45:39.963Z,5.00
2019-01-26T07:48:16.715Z,6.37
2019-01-26T07:50:45.168Z,5.03
2019-01-26T07:53:16.832Z,9.40
2019-01-26T07:55:48.134Z,12.60
2019-01-26T07:58:19.754Z,13.57
2019-01-26T08:00:51.531Z,21.23
2019-01-26T08:03:22.959Z,23.73
2019-01-26T08:05:55.805Z,20.93
2019-01-26T08:08:27.266Z,20.87
2019-01-26T08:10:58.639Z,19.70
2019-01-26T08:13:30.376Z,26.83
2019-01-26T08:16:02.136Z,12.80
2019-01-26T08:18:33.584Z,21.03
2019-01-26T08:21:06.748Z,36.33
2019-01-26T08:23:38.418Z,19.60
2019-01-26T08:26:09.901Z,10.40
2019-01-26T08:28:41.151Z,5.33
2019-01-26T08:31:12.732Z,11.77
2019-01-26T08:33:44.437Z,5.57
2019-01-26T08:36:15.729Z,9.07
2019-01-26T08:38:47.257Z,4.63
2019-01-26T08:41:18.856Z,5.57
2019-01-26T08:44:01.934Z,4.60
2019-01-26T08:46:33.568Z,8.93
2019-01-26T08:49:05.019Z,8.70
2019-01-26T08:51:37.894Z,8.67
2019-01-26T08:54:09.364Z,12.23
2019-01-26T08:56:41.139Z,18.83
2019-01-26T08:59:12.447Z,14.47
2019-01-26T09:01:43.955Z,9.47
2019-01-26T09:04:22.714Z,9.50
2019-01-26T09:06:58.579Z,7.60
2019-01-26T09:09:30.861Z,6.70
2019-01-26T09:12:02.438Z,4.57
2019-01-26T09:14:34.329Z,4.80
2019-01-26T09:17:05.981Z,4.40
2019-01-26T09:19:38.218Z,4.87
2019-01-26T09:22:09.719Z,4.53
2019-01-26T09:24:40.974Z,4.63
2019-01-26T09:27:12.698Z,5.40
2019-01-26T09:29:44.229Z,4.97
2019-01-26T09:32:15.785Z,5.40
2019-01-26T09:34:47.295Z,10.00
2019-01-26T09:37:18.735Z,10.83
2019-01-26T09:39:50.083Z,9.07
2019-01-26T09:42:21.630Z,10.13
2019-01-26T09:44:54.462Z,7.67
2019-01-26T09:47:27.259Z,5.17
2019-01-26T09:49:59.076Z,4.63
2019-01-26T09:52:30.786Z,6.83
2019-01-26T09:55:03.399Z,9.53
2019-01-26T09:57:34.859Z,10.90
2019-01-26T10:00:09.116Z,11.60
2019-01-26T10:02:40.766Z,15.07
2019-01-26T10:05:12.406Z,12.10
2019-01-26T10:07:43.975Z,14.37
2019-01-26T10:10:15.691Z,18.60
2019-01-26T10:12:47.349Z,17.20
2019-01-26T10:15:19.993Z,19.77
2019-01-26T10:17:51.682Z,14.20
2019-01-26T10:20:26.664Z,15.80
2019-01-26T10:22:58.194Z,15.03
2019-01-26T10:25:29.737Z,12.70
2019-01-26T10:28:01.597Z,13.00
2019-01-26T10:31:01.480Z,15.60
2019-01-26T10:33:45.749Z,18.80
2019-01-26T10:36:34.979Z,12.03
2019-01-26T10:39:19.784Z,13.40
2019-01-26T10:42:17.707Z,12.30
2019-01-26T10:44:49.955Z,11.10
2019-01-26T10:47:33.557Z,22.53
2019-01-26T10:50:17.718Z,17.70
2019-01-26T10:52:55.698Z,11.33
2019-01-26T10:55:27.938Z,9.30
2019-01-26T10:58:03.791Z,9.67
2019-01-26T11:00:43.926Z,8.30
2019-01-26T11:03:25.359Z,9.07
2019-01-26T11:05:59.412Z,12.00
2019-01-26T11:08:36.956Z,19.27
2019-01-26T11:11:12.900Z,13.63
2019-01-26T11:14:03.066Z,18.53
2019-01-26T11:16:45.930Z,15.47
2019-01-26T11:19:18.008Z,15.80
2019-01-26T11:21:49.461Z,10.63
2019-01-26T11:24:21.592Z,16.97
2019-01-26T11:26:53.706Z,48.63
2019-01-26T11:29:25.387Z,46.93
2019-01-26T11:31:57.053Z,28.37
2019-01-26T11:34:29.098Z,19.57
2019-01-26T11:37:01.187Z,21.13
2019-01-26T11:39:32.465Z,22.03
2019-01-26T11:42:04.066Z,9.30
2019-01-26T11:44:35.469Z,7.33
2019-01-26T11:47:10.816Z,10.03
2019-01-26T11:49:48.395Z,11.50
2019-01-26T11:52:19.764Z,16.60
2019-01-26T11:55:07.202Z,14.70
2019-01-26T11:57:40.069Z,16.13
2019-01-26T12:00:48.224Z,14.33
2019-01-26T12:03:36.980Z,10.93
2019-01-26T12:06:36.147Z,10.33
2019-01-26T12:09:09.556Z,10.67
2019-01-26T12:11:41.250Z,10.53
2019-01-26T12:14:12.883Z,10.87
2019-01-26T12:16:45.666Z,8.73
2019-01-26T12:19:22.315Z,9.00
2019-01-26T12:21:51.725Z,9.33
2019-01-26T12:24:23.702Z,9.77
2019-01-26T12:26:55.273Z,9.60
2019-01-26T12:29:26.806Z,9.80
2019-01-26T12:31:58.755Z,11.57
2019-01-26T12:34:30.401Z,12.63
2019-01-26T12:37:01.956Z,16.20
2019-01-26T12:39:33.656Z,15.87
2019-01-26T12:42:05.220Z,18.50
2019-01-26T12:44:36.515Z,11.80
2019-01-26T12:47:07.907Z,14.03
2019-01-26T12:49:40.405Z,14.73
2019-01-26T12:52:12.024Z,15.77
2019-01-26T12:54:43.364Z,14.77
2019-01-26T12:57:15.056Z,16.47
2019-01-26T12:59:46.467Z,15.60
2019-01-26T13:02:18.208Z,13.07
2019-01-26T13:04:49.819Z,14.27
2019-01-26T13:07:21.369Z,15.43
2019-01-26T13:09:54.732Z,13.33
2019-01-26T13:12:27.246Z,12.07
2019-01-26T13:14:59.066Z,13.50
2019-01-26T13:17:30.450Z,12.23
2019-01-26T13:20:02.094Z,16.50
2019-01-26T13:22:33.762Z,15.13
2019-01-26T13:25:06.747Z,13.73
2019-01-26T13:27:38.607Z,14.00
2019-01-26T13:30:16.398Z,13.87
2019-01-26T13:33:00.890Z,10.50
2019-01-26T13:35:33.780Z,12.87
2019-01-26T13:38:05.511Z,13.40
2019-01-26T13:40:37.347Z,13.73
2019-01-26T13:43:09.767Z,13.73
2019-01-26T13:45:41.315Z,16.70
2019-01-26T13:48:13.769Z,16.30
2019-01-26T13:50:45.360Z,12.57
2019-01-26T13:53:16.956Z,21.50
2019-01-26T13:55:48.266Z,19.10
2019-01-26T13:58:20.409Z,17.33
2019-01-26T14:00:52.096Z,35.43
2019-01-26T14:03:23.652Z,38.63
2019-01-26T14:05:55.139Z,45.73
2019-01-26T14:08:26.559Z,43.93
2019-01-26T14:10:58.318Z,62.33
2019-01-26T14:13:29.795Z,42.07
2019-01-26T14:16:01.465Z,38.00
2019-01-26T14:18:34.036Z,41.13
2019-01-26T14:21:06.464Z,36.03
2019-01-26T14:23:38.067Z,29.37
2019-01-26T14:26:09.612Z,37.63
2019-01-26T14:28:41.284Z,55.23
2019-01-26T14:31:12.937Z,52.23
2019-01-26T14:33:44.485Z,44.43
2019-01-26T14:36:16.397Z,48.67
2019-01-26T14:38:48.092Z,56.97
2019-01-26T14:41:19.585Z,43.63
2019-01-26T14:43:52.102Z,53.30
2019-01-26T14:46:23.713Z,77.50
2019-01-26T14:48:55.993Z,67.80
2019-01-26T14:51:27.400Z,56.90
2019-01-26T14:53:58.705Z,65.00
2019-01-26T14:56:30.210Z,96.17
2019-01-26T14:59:01.691Z,61.93
2019-01-26T15:01:33.217Z,62.33
2019-01-26T15:04:05.404Z,79.90
2019-01-26T15:06:36.839Z,68.20
2019-01-26T15:09:10.150Z,70.27
2019-01-26T15:11:41.860Z,83.83
2019-01-26T15:14:13.257Z,84.77
2019-01-26T15:16:44.795Z,94.73
2019-01-26T15:19:17.351Z,117.10
2019-01-26T15:21:48.850Z,99.60
2019-01-26T15:24:20.846Z,81.33
2019-01-26T15:26:52.404Z,52.83
2019-01-26T15:29:24.063Z,46.70
2019-01-26T15:31:55.606Z,44.53
2019-01-26T15:34:27.218Z,35.67
2019-01-26T15:36:58.862Z,34.13
2019-01-26T15:39:30.234Z,31.00
2019-01-26T15:42:01.836Z,29.40
2019-01-26T15:44:34.058Z,30.43
2019-01-26T15:47:05.782Z,29.83
2019-01-26T15:49:37.376Z,29.67
2019-01-26T15:52:09.053Z,34.97
2019-01-26T15:54:40.701Z,36.87
2019-01-26T15:57:12.208Z,30.07
2019-01-26T15:59:43.387Z,31.40
2019-01-26T16:02:15.019Z,32.43
2019-01-26T16:04:47.077Z,33.80
2019-01-26T16:07:18.538Z,35.20
2019-01-26T16:09:51.402Z,33.10
2019-01-26T16:12:23.123Z,32.10
2019-01-26T16:14:54.538Z,35.27
2019-01-26T16:17:26.249Z,36.53
2019-01-26T16:19:58.419Z,36.40
2019-01-26T16:22:30.175Z,35.10
2019-01-26T16:25:01.827Z,33.60
2019-01-26T16:27:33.633Z,35.20
2019-01-26T16:30:06.697Z,34.30
2019-01-26T16:32:38.486Z,38.00
2019-01-26T16:35:12.158Z,37.57
2019-01-26T16:37:44.626Z,43.17
2019-01-26T16:40:20.141Z,44.37
2019-01-26T16:42:51.597Z,41.07
2019-01-26T16:45:25.465Z,41.63
2019-01-26T16:47:57.074Z,38.37
2019-01-26T16:50:30.023Z,44.00
2019-01-26T16:53:01.731Z,40.13
2019-01-26T16:55:33.122Z,40.17
2019-01-26T16:58:04.818Z,40.13
2019-01-26T17:00:47.174Z,40.13
2019-01-26T17:03:18.750Z,38.87
2019-01-26T17:05:50.381Z,40.60
2019-01-26T17:08:22.018Z,40.63
2019-01-26T17:10:54.528Z,38.47
2019-01-26T17:13:26.189Z,33.87
2019-01-26T17:15:57.748Z,38.90
2019-01-26T17:18:29.230Z,42.17
2019-01-26T17:21:00.757Z,45.70
2019-01-26T17:23:32.864Z,73.40
2019-01-26T17:26:04.534Z,85.27
2019-01-26T17:28:36.301Z,68.53
2019-01-26T17:31:07.758Z,63.20
2019-01-26T17:33:39.298Z,86.90
2019-01-26T17:36:10.992Z,68.63
2019-01-26T17:38:42.729Z,58.93
2019-01-26T17:41:14.566Z,41.40
2019-01-26T17:43:46.299Z,38.13
2019-01-26T17:46:18.471Z,33.53
2019-01-26T17:48:49.938Z,28.10
2019-01-26T17:51:22.711Z,25.00
2019-01-26T17:53:54.274Z,23.40
2019-01-26T17:56:25.519Z,24.33
2019-01-26T17:58:57.083Z,26.60
2019-01-26T18:01:29.638Z,29.10
2019-01-26T18:04:01.370Z,29.27
2019-01-26T18:06:32.958Z,29.90
2019-01-26T18:09:06.006Z,27.37
2019-01-26T18:11:37.519Z,28.17
2019-01-26T18:14:08.979Z,28.50
2019-01-26T18:16:40.572Z,27.43
2019-01-26T18:19:12.076Z,28.47
2019-01-26T18:21:43.396Z,28.60
2019-01-26T18:24:18.211Z,29.07
2019-01-26T18:27:01.063Z,32.43
2019-01-26T18:29:35.647Z,28.27
2019-01-26T18:32:19.150Z,27.37
2019-01-26T18:35:08.466Z,24.40
2019-01-26T18:37:49.682Z,25.70
2019-01-26T18:40:45.402Z,23.43
2019-01-26T18:47:08.357Z,26.57
2019-01-26T18:49:56.748Z,28.90
2019-01-26T18:52:55.150Z,24.40
2019-01-26T18:55:35.248Z,20.50
2019-01-26T18:58:17.971Z,18.90
2019-01-26T19:00:58.611Z,25.57
2019-01-26T19:03:45.312Z,27.43
2019-01-26T19:06:26.166Z,27.73
2019-01-26T19:09:07.462Z,24.63
2019-01-26T19:11:50.921Z,24.57
2019-01-26T19:14:31.334Z,25.93
2019-01-26T19:17:09.792Z,27.53
2019-01-26T19:19:46.864Z,35.30
2019-01-26T19:22:28.357Z,45.57
2019-01-26T19:25:05.929Z,52.13
2019-01-26T19:27:39.103Z,57.70
2019-01-26T19:30:12.293Z,54.23
2019-01-26T19:32:43.780Z,46.43
2019-01-26T19:35:15.516Z,34.53
2019-01-26T19:37:47.204Z,31.10
2019-01-26T19:40:20.198Z,27.07
2019-01-26T19:42:51.597Z,25.50
2019-01-26T19:45:23.103Z,24.20
2019-01-26T19:47:54.847Z,20.40
2019-01-26T19:50:26.621Z,19.33
2019-01-26T19:52:58.353Z,20.83
2019-01-26T19:55:30.299Z,29.70
2019-01-26T19:58:02.592Z,26.27
2019-01-26T20:00:34.585Z,22.07
2019-01-26T20:03:06.912Z,21.40
2019-01-26T20:05:38.623Z,20.30
2019-01-26T20:08:10.502Z,19.57
2019-01-26T20:10:42.149Z,21.20
2019-01-26T20:13:14.643Z,19.67
2019-01-26T20:15:46.152Z,19.00
2019-01-26T20:18:17.827Z,17.43
2019-01-26T20:20:49.579Z,20.17
2019-01-26T20:23:22.212Z,18.33
2019-01-26T20:25:54.579Z,31.00
2019-01-26T20:28:27.108Z,31.97
2019-01-26T20:30:59.310Z,34.03
2019-01-26T20:33:31.441Z,35.57
2019-01-26T20:36:03.816Z,31.43
2019-01-26T20:38:36.876Z,32.20
2019-01-26T20:41:09.801Z,34.67
2019-01-26T20:43:42.498Z,43.57
2019-01-26T20:46:15.154Z,41.23
2019-01-26T20:48:48.191Z,39.33
2019-01-26T20:51:24.845Z,40.63
2019-01-26T20:53:54.695Z,42.33
2019-01-26T20:56:26.875Z,48.43
2019-01-26T20:58:59.187Z,49.73
2019-01-26T21:01:32.074Z,39.60
2019-01-26T21:04:04.307Z,32.87
2019-01-26T21:06:36.346Z,28.60
2019-01-26T21:09:10.385Z,23.67
2019-01-26T21:11:42.685Z,24.63
2019-01-26T21:14:15.063Z,24.90
2019-01-26T21:16:47.094Z,24.90
2019-01-26T21:19:19.662Z,24.30
2019-01-26T21:21:53.103Z,27.23
2019-01-26T21:24:26.039Z,32.83
2019-01-26T21:26:58.606Z,40.27
2019-01-26T21:29:30.873Z,37.37
2019-01-26T21:32:02.253Z,33.43
2019-01-26T21:34:33.887Z,56.27
2019-01-26T21:37:05.388Z,61.47
2019-01-26T21:39:36.957Z,54.50
2019-01-26T21:42:08.461Z,59.77
2019-01-26T21:44:39.912Z,63.73
2019-01-26T21:47:11.405Z,61.63
2019-01-26T21:49:42.698Z,54.50
2019-01-26T21:52:14.285Z,54.20
2019-01-26T21:54:45.780Z,54.13
2019-01-26T21:57:17.224Z,64.63
2019-01-26T21:59:48.447Z,61.07
2019-01-26T22:02:20.020Z,53.47
2019-01-26T22:04:51.417Z,42.73
2019-01-26T22:07:23.133Z,34.80
2019-01-26T22:09:55.044Z,32.30
2019-01-26T22:12:26.379Z,30.93
2019-01-26T22:14:58.050Z,31.10
2019-01-26T22:17:29.604Z,28.50
2019-01-26T22:20:01.280Z,40.17
2019-01-26T22:22:33.066Z,41.67
2019-01-26T22:25:07.199Z,41.70
2019-01-26T22:27:38.791Z,41.77
2019-01-26T22:30:17.703Z,42.97
2019-01-26T22:32:49.173Z,42.77
2019-01-26T22:35:20.784Z,51.93
2019-01-26T22:37:52.299Z,59.27
2019-01-26T22:40:25.973Z,57.60
2019-01-26T22:42:57.295Z,64.67
2019-01-26T22:45:29.389Z,61.10
2019-01-26T22:48:00.824Z,54.63
2019-01-26T22:50:32.623Z,55.63
2019-01-26T22:53:04.458Z,39.90
2019-01-26T22:55:35.897Z,39.07
2019-01-26T22:58:07.374Z,38.93
2019-01-26T23:00:55.242Z,42.87
2019-01-26T23:03:39.259Z,44.13
2019-01-26T23:06:45.845Z,44.20
2019-01-26T23:09:40.546Z,43.13
2019-01-26T23:12:45.395Z,41.10
2019-01-26T23:15:53.699Z,40.33
2019-01-26T23:19:00.745Z,38.63
2019-01-26T23:22:23.966Z,39.20
2019-01-26T23:25:37.032Z,39.27
2019-01-26T23:28:43.673Z,40.80
2019-01-26T23:31:17.784Z,37.73
2019-01-26T23:33:51.290Z,37.27
2019-01-26T23:36:22.734Z,37.87
2019-01-26T23:38:53.996Z,38.33
2019-01-26T23:41:25.503Z,39.03
2019-01-26T23:43:56.819Z,37.60
2019-01-26T23:46:30.107Z,33.77
2019-01-26T23:49:01.525Z,27.07
2019-01-26T23:51:33.864Z,27.97
2019-01-26T23:54:05.496Z,22.87
2019-01-26T23:56:37.105Z,22.33
2019-01-26T23:59:08.710Z,20.93
